createdAt,value
2023-03-19T00:00:36.868Z,9.60
2023-03-19T00:03:07.090Z,9.50
2023-03-19T00:05:46.218Z,9.40
2023-03-19T00:08:23.457Z,9.50
2023-03-19T00:10:57.338Z,9.40
2023-03-19T00:13:54.057Z,9.30
2023-03-19T00:16:26.062Z,9.10
2023-03-19T00:18:57.627Z,9.00
2023-03-19T00:21:30.683Z,8.90
2023-03-19T00:24:07.324Z,8.90
2023-03-19T00:26:47.563Z,9.00
2023-03-19T00:29:28.292Z,9.00
2023-03-19T00:32:05.948Z,9.10
2023-03-19T00:34:42.986Z,9.20
2023-03-19T00:37:27.604Z,9.20
2023-03-19T00:40:06.714Z,9.00
2023-03-19T00:42:41.179Z,8.90
2023-03-19T00:45:16.415Z,8.90
2023-03-19T00:48:01.778Z,8.80
2023-03-19T00:50:32.331Z,8.80
2023-03-19T00:53:08.206Z,8.70
2023-03-19T00:55:43.597Z,8.60
2023-03-19T00:58:20.298Z,8.50
2023-03-19T01:00:59.608Z,8.40
2023-03-19T01:03:42.317Z,8.40
2023-03-19T01:06:11.754Z,8.50
2023-03-19T01:08:49.529Z,8.50
2023-03-19T01:11:20.662Z,8.40
2023-03-19T01:13:52.891Z,8.20
2023-03-19T01:16:30.254Z,8.00
2023-03-19T01:19:01.509Z,7.90
2023-03-19T01:21:38.810Z,7.70
2023-03-19T01:24:20.149Z,7.70
2023-03-19T01:26:54.441Z,7.80
2023-03-19T01:29:35.283Z,7.90
2023-03-19T01:32:14.851Z,7.90
2023-03-19T01:34:56.142Z,7.90
2023-03-19T01:37:26.404Z,7.90
2023-03-19T01:40:08.590Z,7.80
2023-03-19T01:42:56.967Z,7.80
2023-03-19T01:45:43.692Z,7.70
2023-03-19T01:48:30.503Z,7.50
2023-03-19T01:51:07.286Z,7.50
2023-03-19T01:53:41.829Z,7.40
2023-03-19T01:56:18.739Z,7.40
2023-03-19T01:58:55.518Z,7.40
2023-03-19T02:01:43.225Z,7.40
2023-03-19T02:04:13.610Z,7.50
2023-03-19T02:06:47.154Z,7.60
2023-03-19T02:09:46.108Z,7.60
2023-03-19T02:12:27.378Z,7.70
2023-03-19T02:15:17.636Z,7.60
2023-03-19T02:17:46.816Z,7.70
2023-03-19T02:20:37.546Z,7.70
2023-03-19T02:23:16.526Z,7.80
2023-03-19T02:26:02.968Z,7.70
2023-03-19T02:28:40.195Z,7.50
2023-03-19T02:31:23.052Z,7.50
2023-03-19T02:34:15.366Z,7.50
2023-03-19T02:36:54.643Z,7.50
2023-03-19T02:39:31.244Z,7.50
2023-03-19T02:42:13.844Z,7.50
2023-03-19T02:44:44.600Z,7.40
2023-03-19T02:47:20.267Z,7.30
2023-03-19T02:49:54.974Z,7.40
2023-03-19T02:52:23.835Z,7.50
2023-03-19T02:55:00.659Z,7.50
2023-03-19T02:57:33.868Z,7.50
2023-03-19T03:00:19.035Z,7.60
2023-03-19T03:02:51.032Z,7.60
2023-03-19T03:05:24.859Z,7.50
2023-03-19T03:07:55.022Z,7.40
2023-03-19T03:10:25.301Z,7.40
2023-03-19T03:13:10.534Z,7.40
2023-03-19T03:15:56.399Z,7.50
2023-03-19T03:18:38.138Z,7.50
2023-03-19T03:21:20.104Z,7.50
2023-03-19T03:23:50.598Z,7.60
2023-03-19T03:26:30.573Z,7.60
2023-03-19T03:29:06.869Z,7.70
2023-03-19T03:31:51.871Z,7.80
2023-03-19T03:34:23.905Z,7.90
2023-03-19T03:37:01.932Z,8.00
2023-03-19T03:39:34.143Z,8.10
2023-03-19T03:44:54.754Z,8.30
2023-03-19T03:47:23.645Z,8.20
2023-03-19T03:49:53.894Z,8.20
2023-03-19T03:52:24.624Z,8.20
2023-03-19T03:54:59.734Z,8.10
2023-03-19T03:57:31.891Z,8.10
2023-03-19T04:00:23.888Z,8.20
2023-03-19T04:03:06.114Z,8.20
2023-03-19T04:05:43.328Z,8.30
2023-03-19T04:08:17.687Z,8.20
2023-03-19T04:10:49.762Z,8.20
2023-03-19T04:13:29.378Z,8.30
2023-03-19T04:16:20.749Z,8.30
2023-03-19T04:18:56.134Z,8.40
2023-03-19T04:21:26.785Z,8.40
2023-03-19T04:24:09.900Z,8.50
2023-03-19T04:26:53.604Z,8.60
2023-03-19T04:29:26.994Z,8.60
2023-03-19T04:32:02.244Z,8.70
2023-03-19T04:34:40.246Z,8.70
2023-03-19T04:37:18.795Z,8.70
2023-03-19T04:39:48.034Z,8.80
2023-03-19T04:42:23.074Z,8.80
2023-03-19T04:45:02.351Z,8.90
2023-03-19T04:47:38.735Z,8.90
2023-03-19T04:50:17.053Z,9.00
2023-03-19T04:52:46.278Z,9.00
2023-03-19T04:55:28.065Z,9.00
2023-03-19T04:57:59.756Z,9.00
2023-03-19T05:00:42.852Z,9.00
2023-03-19T05:03:18.655Z,8.90
2023-03-19T05:06:07.372Z,8.80
2023-03-19T05:08:49.802Z,8.80
2023-03-19T05:11:31.517Z,8.70
2023-03-19T05:14:01.181Z,8.70
2023-03-19T05:16:42.942Z,8.50
2023-03-19T05:19:17.673Z,8.40
2023-03-19T05:21:48.719Z,8.50
2023-03-19T05:27:06.822Z,8.40
2023-03-19T05:29:43.977Z,8.40
2023-03-19T05:32:15.018Z,8.30
2023-03-19T05:34:49.901Z,8.20
2023-03-19T05:37:39.612Z,8.00
2023-03-19T05:40:09.663Z,7.80
2023-03-19T05:42:38.512Z,7.80
2023-03-19T05:45:08.622Z,7.80
2023-03-19T05:47:44.938Z,8.00
2023-03-19T05:50:16.473Z,8.10
2023-03-19T05:52:46.092Z,8.20
2023-03-19T05:55:17.731Z,8.30
2023-03-19T05:57:53.965Z,8.30
2023-03-19T06:00:24.485Z,8.20
2023-03-19T06:02:55.271Z,8.10
2023-03-19T06:05:29.571Z,8.00
2023-03-19T06:08:02.187Z,8.10
2023-03-19T06:10:32.431Z,8.00
2023-03-19T06:13:05.712Z,8.10
2023-03-19T06:15:46.508Z,8.10
2023-03-19T06:18:18.018Z,8.30
2023-03-19T06:20:53.494Z,8.40
2023-03-19T06:23:39.509Z,8.60
2023-03-19T06:26:08.549Z,8.70
2023-03-19T06:28:39.069Z,8.80
2023-03-19T06:31:11.720Z,9.00
2023-03-19T06:33:46.864Z,9.10
2023-03-19T06:36:19.598Z,9.20
2023-03-19T06:38:51.119Z,9.30
2023-03-19T06:41:30.227Z,9.40
2023-03-19T06:44:02.119Z,9.50
2023-03-19T06:46:36.066Z,9.60
2023-03-19T06:49:07.572Z,9.60
2023-03-19T06:51:48.475Z,9.70
2023-03-19T06:54:20.395Z,9.80
2023-03-19T06:56:51.464Z,9.90
2023-03-19T06:59:33.357Z,9.90
2023-03-19T07:02:07.818Z,9.90
2023-03-19T07:04:45.640Z,10.00
2023-03-19T07:07:15.876Z,10.10
2023-03-19T07:09:47.375Z,10.20
2023-03-19T07:12:16.413Z,10.20
2023-03-19T07:14:49.494Z,10.40
2023-03-19T07:17:25.705Z,10.40
2023-03-19T07:20:11.666Z,10.40
2023-03-19T07:22:48.965Z,10.40
2023-03-19T07:25:19.672Z,10.50
2023-03-19T07:27:55.509Z,10.40
2023-03-19T07:30:34.311Z,10.40
2023-03-19T07:33:07.516Z,10.40
2023-03-19T07:35:41.394Z,10.50
2023-03-19T07:38:30.835Z,10.50
2023-03-19T07:41:20.922Z,10.70
2023-03-19T07:43:53.145Z,10.80
2023-03-19T07:46:30.707Z,10.90
2023-03-19T07:49:18.662Z,11.00
2023-03-19T07:51:59.037Z,11.10
2023-03-19T07:54:37.590Z,11.30
2023-03-19T07:57:08.333Z,11.40
2023-03-19T07:59:49.632Z,11.70
2023-03-19T08:02:21.577Z,12.00
2023-03-19T08:04:56.627Z,12.30
2023-03-19T08:07:31.420Z,12.30
2023-03-19T08:10:15.678Z,12.40
2023-03-19T08:12:51.348Z,12.60
2023-03-19T08:15:28.535Z,12.80
2023-03-19T08:18:03.723Z,13.80
2023-03-19T08:20:37.057Z,15.20
2023-03-19T08:23:19.566Z,16.80
2023-03-19T08:26:13.969Z,18.50
2023-03-19T08:28:42.870Z,19.90
2023-03-19T08:31:20.739Z,20.00
2023-03-19T08:34:00.212Z,18.90
2023-03-19T08:36:30.737Z,18.10
2023-03-19T08:39:05.958Z,17.40
2023-03-19T08:41:54.617Z,16.90
2023-03-19T08:44:26.940Z,17.00
2023-03-19T08:47:06.178Z,17.70
2023-03-19T08:49:52.878Z,19.60
2023-03-19T08:52:40.222Z,21.70
2023-03-19T08:55:14.022Z,22.70
2023-03-19T08:57:53.508Z,23.20
2023-03-19T09:00:30.161Z,22.80
2023-03-19T09:03:04.039Z,22.90
2023-03-19T09:05:35.198Z,23.70
2023-03-19T09:08:05.686Z,25.00
2023-03-19T09:10:42.059Z,25.00
2023-03-19T09:13:18.154Z,23.70
2023-03-19T09:15:58.638Z,22.10
2023-03-19T09:18:28.823Z,20.70
2023-03-19T09:21:14.820Z,19.70
2023-03-19T09:23:48.420Z,19.30
2023-03-19T09:26:21.282Z,19.10
2023-03-19T09:29:00.221Z,19.00
2023-03-19T09:31:38.828Z,18.50
2023-03-19T09:34:18.163Z,17.90
2023-03-19T09:36:58.093Z,17.40
2023-03-19T09:39:30.789Z,16.90
2023-03-19T09:42:15.810Z,16.60
2023-03-19T09:44:52.826Z,16.30
2023-03-19T09:47:44.259Z,16.00
2023-03-19T09:50:20.195Z,15.70
2023-03-19T09:52:55.529Z,15.50
2023-03-19T09:55:40.881Z,15.30
2023-03-19T09:58:24.531Z,15.20
2023-03-19T10:00:59.368Z,15.10
2023-03-19T10:04:22.176Z,15.10
2023-03-19T10:06:59.989Z,15.10
2023-03-19T10:09:49.590Z,15.10
2023-03-19T10:12:47.109Z,15.00
2023-03-19T10:15:23.968Z,15.10
2023-03-19T10:18:27.489Z,15.20
2023-03-19T10:21:15.260Z,15.40
2023-03-19T10:23:48.518Z,15.70
2023-03-19T10:26:22.589Z,15.90
2023-03-19T10:29:09.540Z,16.10
2023-03-19T10:32:05.631Z,16.30
2023-03-19T10:34:41.651Z,16.40
2023-03-19T10:37:27.637Z,16.60
2023-03-19T10:40:04.779Z,16.70
2023-03-19T10:42:48.895Z,16.80
2023-03-19T10:45:33.449Z,16.90
2023-03-19T10:48:08.951Z,16.80
2023-03-19T10:50:54.912Z,16.60
2023-03-19T10:53:34.782Z,16.60
2023-03-19T10:56:07.045Z,16.40
2023-03-19T10:58:44.517Z,16.30
2023-03-19T11:01:30.693Z,16.20
2023-03-19T11:04:07.185Z,16.30
2023-03-19T11:06:42.539Z,16.40
2023-03-19T11:09:22.730Z,16.40
2023-03-19T11:12:03.701Z,16.50
2023-03-19T11:14:44.017Z,16.50
2023-03-19T11:17:22.127Z,16.60
2023-03-19T11:19:57.305Z,16.60
2023-03-19T11:22:40.141Z,16.50
2023-03-19T11:25:20.145Z,16.30
2023-03-19T11:28:04.903Z,16.10
2023-03-19T11:30:59.210Z,16.00
2023-03-19T11:34:14.515Z,15.90
2023-03-19T11:36:54.135Z,15.90
2023-03-19T11:39:32.888Z,16.10
2023-03-19T11:42:30.875Z,16.20
2023-03-19T11:45:19.201Z,16.20
2023-03-19T11:48:01.912Z,16.20
2023-03-19T11:50:49.730Z,16.10
2023-03-19T11:53:29.268Z,16.30
2023-03-19T11:56:34.749Z,16.40
2023-03-19T11:59:53.138Z,16.50
2023-03-19T12:05:51.280Z,16.70
2023-03-19T12:08:38.149Z,16.60
2023-03-19T12:11:32.920Z,16.50
2023-03-19T12:14:22.238Z,16.40
2023-03-19T12:17:13.112Z,16.30
2023-03-19T12:20:08.832Z,16.30
2023-03-19T12:23:06.513Z,16.30
2023-03-19T12:26:17.270Z,16.30
2023-03-19T12:29:09.111Z,16.40
2023-03-19T12:31:55.901Z,16.50
2023-03-19T12:34:33.818Z,16.50
2023-03-19T12:37:17.777Z,16.50
2023-03-19T12:40:01.333Z,16.60
2023-03-19T12:42:52.729Z,16.60
2023-03-19T12:45:44.061Z,16.60
2023-03-19T12:48:26.098Z,16.50
2023-03-19T12:51:07.265Z,16.50
2023-03-19T12:54:03.158Z,16.50
2023-03-19T12:56:42.608Z,17.00
2023-03-19T12:59:27.148Z,17.70
2023-03-19T13:02:09.906Z,17.80
2023-03-19T13:04:55.102Z,17.70
2023-03-19T13:07:52.326Z,17.60
2023-03-19T13:10:26.695Z,17.60
2023-03-19T13:13:27.271Z,17.50
2023-03-19T13:16:10.924Z,17.30
2023-03-19T13:18:53.117Z,17.10
2023-03-19T13:21:37.465Z,16.90
2023-03-19T13:24:27.228Z,16.90
2023-03-19T13:27:03.934Z,16.90
2023-03-19T13:29:47.687Z,16.80
2023-03-19T13:32:36.116Z,16.50
2023-03-19T13:35:43.244Z,16.40
2023-03-19T13:38:49.402Z,16.20
2023-03-19T13:42:00.378Z,16.10
2023-03-19T13:44:47.179Z,15.90
2023-03-19T13:47:48.368Z,15.70
2023-03-19T13:50:57.503Z,15.50
2023-03-19T13:53:42.737Z,15.50
2023-03-19T13:56:29.688Z,15.50
2023-03-19T13:59:28.535Z,15.60
2023-03-19T14:01:59.012Z,15.60
2023-03-19T14:04:31.465Z,15.60
2023-03-19T14:07:14.920Z,15.50
2023-03-19T14:10:13.845Z,15.40
2023-03-19T14:12:55.880Z,15.30
2023-03-19T14:15:46.282Z,15.20
2023-03-19T14:18:24.798Z,15.00
2023-03-19T14:21:12.607Z,14.90
2023-03-19T14:24:54.758Z,14.80
2023-03-19T14:27:25.964Z,14.70
2023-03-19T14:30:00.975Z,14.60
2023-03-19T14:32:36.596Z,14.50
2023-03-19T14:35:11.412Z,14.60
2023-03-19T14:37:49.452Z,14.50
2023-03-19T14:40:22.959Z,14.60
2023-03-19T14:43:10.667Z,14.60
2023-03-19T14:46:05.590Z,14.60
2023-03-19T14:49:32.264Z,14.60
2023-03-19T14:52:07.030Z,14.50
2023-03-19T14:54:50.506Z,14.50
2023-03-19T14:57:29.173Z,14.50
2023-03-19T15:00:00.116Z,14.50
2023-03-19T15:02:37.154Z,14.40
2023-03-19T15:05:09.919Z,14.50
2023-03-19T15:07:43.330Z,14.50
2023-03-19T15:10:26.332Z,14.60
2023-03-19T15:13:34.365Z,14.60
2023-03-19T15:16:29.917Z,14.60
2023-03-19T15:19:04.744Z,14.70
2023-03-19T15:21:40.431Z,14.70
2023-03-19T15:24:26.898Z,14.80
2023-03-19T15:26:58.273Z,14.90
2023-03-19T15:29:39.341Z,15.10
2023-03-19T15:32:11.737Z,15.20
2023-03-19T15:34:42.797Z,15.40
2023-03-19T15:37:22.274Z,15.50
2023-03-19T15:40:15.649Z,16.10
2023-03-19T15:42:47.153Z,16.40
2023-03-19T15:45:25.023Z,16.40
2023-03-19T15:47:59.606Z,16.50
2023-03-19T15:50:35.102Z,16.70
2023-03-19T15:53:10.221Z,16.90
2023-03-19T15:55:42.184Z,17.20
2023-03-19T15:58:13.443Z,17.40
2023-03-19T16:03:45.033Z,17.60
2023-03-19T16:06:20.714Z,17.40
2023-03-19T16:08:54.003Z,17.30
2023-03-19T16:11:31.964Z,17.10
2023-03-19T16:14:02.308Z,16.70
2023-03-19T16:16:39.845Z,16.40
2023-03-19T16:19:32.683Z,16.20
2023-03-19T16:22:02.548Z,15.80
2023-03-19T16:24:40.246Z,15.50
2023-03-19T16:27:15.529Z,15.20
2023-03-19T16:29:50.287Z,14.90
2023-03-19T16:32:48.513Z,14.70
2023-03-19T16:35:20.111Z,14.50
2023-03-19T16:38:01.137Z,14.30
2023-03-19T16:41:23.251Z,14.10
2023-03-19T16:44:09.506Z,13.90
2023-03-19T16:46:43.744Z,13.70
2023-03-19T16:49:20.058Z,13.50
2023-03-19T16:51:53.130Z,13.40
2023-03-19T16:54:24.368Z,13.30
2023-03-19T16:57:02.637Z,13.20
2023-03-19T16:59:38.435Z,13.00
2023-03-19T17:02:23.321Z,12.90
2023-03-19T17:04:58.285Z,12.70
2023-03-19T17:07:40.378Z,12.60
2023-03-19T17:10:15.417Z,12.50
2023-03-19T17:12:55.652Z,12.40
2023-03-19T17:15:41.014Z,12.30
2023-03-19T17:18:22.537Z,12.20
2023-03-19T17:21:16.262Z,12.20
2023-03-19T17:23:50.174Z,12.10
2023-03-19T17:26:21.783Z,12.10
2023-03-19T17:28:57.050Z,12.00
2023-03-19T17:31:33.551Z,11.90
2023-03-19T17:34:16.833Z,11.90
2023-03-19T17:36:57.429Z,11.80
2023-03-19T17:39:54.755Z,11.80
2023-03-19T17:42:45.124Z,11.80
2023-03-19T17:45:30.378Z,11.70
2023-03-19T17:48:01.937Z,11.70
2023-03-19T17:50:44.697Z,11.60
2023-03-19T17:53:17.504Z,11.60
2023-03-19T17:55:47.428Z,11.40
2023-03-19T17:58:28.781Z,11.30
2023-03-19T18:01:14.728Z,11.30
2023-03-19T18:03:50.374Z,11.30
2023-03-19T18:06:37.890Z,11.30
2023-03-19T18:09:20.097Z,11.20
2023-03-19T18:11:53.633Z,11.20
2023-03-19T18:14:29.378Z,11.20
2023-03-19T18:17:08.902Z,11.20
2023-03-19T18:19:46.460Z,11.20
2023-03-19T18:22:20.591Z,11.10
2023-03-19T18:24:58.579Z,11.10
2023-03-19T18:27:37.858Z,11.10
2023-03-19T18:30:13.581Z,11.10
2023-03-19T18:33:00.436Z,11.00
2023-03-19T18:35:50.256Z,10.90
2023-03-19T18:38:33.196Z,10.80
2023-03-19T18:41:14.255Z,10.80
2023-03-19T18:43:50.521Z,10.70
2023-03-19T18:46:29.212Z,10.80
2023-03-19T18:49:07.793Z,10.80
2023-03-19T18:52:01.182Z,10.80
2023-03-19T18:54:40.538Z,10.90
2023-03-19T18:57:19.536Z,10.80
2023-03-19T19:00:17.523Z,10.80
2023-03-19T19:02:59.451Z,10.80
2023-03-19T19:05:33.019Z,10.80
2023-03-19T19:08:13.990Z,10.80
2023-03-19T19:10:48.257Z,10.80
2023-03-19T19:13:31.771Z,10.80
2023-03-19T19:16:02.056Z,10.80
2023-03-19T19:18:34.152Z,10.80
2023-03-19T19:21:12.694Z,10.70
2023-03-19T19:23:54.408Z,10.70
2023-03-19T19:26:28.392Z,10.80
2023-03-19T19:29:12.455Z,10.80
2023-03-19T19:32:07.046Z,10.70
2023-03-19T19:34:47.905Z,10.70
2023-03-19T19:37:22.699Z,10.70
2023-03-19T19:39:55.449Z,10.70
2023-03-19T19:42:28.065Z,10.70
2023-03-19T19:48:40.553Z,10.70
2023-03-19T19:51:10.144Z,10.70
2023-03-19T19:53:40.227Z,10.70
2023-03-19T19:56:19.168Z,10.60
2023-03-19T19:58:51.353Z,10.70
2023-03-19T20:01:23.768Z,10.70
2023-03-19T20:03:55.508Z,10.70
2023-03-19T20:06:25.998Z,10.70
2023-03-19T20:08:55.815Z,10.70
2023-03-19T20:11:29.680Z,10.70
2023-03-19T20:14:00.110Z,10.70
2023-03-19T20:16:30.283Z,10.70
2023-03-19T20:19:01.810Z,10.70
2023-03-19T20:21:31.183Z,10.70
2023-03-19T20:24:00.744Z,10.70
2023-03-19T20:26:32.060Z,10.70
2023-03-19T20:29:04.868Z,10.70
2023-03-19T20:31:34.366Z,10.70
2023-03-19T20:34:05.462Z,10.60
2023-03-19T20:36:34.468Z,10.60
2023-03-19T20:39:04.294Z,10.70
2023-03-19T20:41:34.334Z,10.70
2023-03-19T20:44:07.143Z,10.80
2023-03-19T20:46:38.371Z,10.70
2023-03-19T20:49:29.846Z,10.70
2023-03-19T20:51:59.892Z,10.70
2023-03-19T20:54:29.172Z,10.70
2023-03-19T20:57:05.526Z,10.60
2023-03-19T20:59:37.126Z,10.60
2023-03-19T21:02:15.714Z,10.60
2023-03-19T21:04:48.045Z,10.70
2023-03-19T21:07:36.868Z,10.70
2023-03-19T21:10:18.185Z,10.70
2023-03-19T21:12:48.304Z,10.70
2023-03-19T21:15:18.204Z,10.70
2023-03-19T21:17:48.145Z,10.70
2023-03-19T21:20:27.372Z,10.70
2023-03-19T21:23:00.127Z,10.70
2023-03-19T21:25:33.765Z,10.70
2023-03-19T21:28:12.630Z,10.70
2023-03-19T21:30:42.768Z,10.80
2023-03-19T21:33:22.328Z,10.80
2023-03-19T21:35:55.622Z,10.80
2023-03-19T21:38:24.904Z,10.80
2023-03-19T21:40:58.104Z,10.70
2023-03-19T21:43:31.169Z,10.70
2023-03-19T21:46:04.179Z,10.70
2023-03-19T21:48:40.211Z,10.70
2023-03-19T21:51:11.473Z,10.70
2023-03-19T21:53:40.106Z,10.60
2023-03-19T21:56:15.034Z,10.60
2023-03-19T21:58:43.653Z,10.50
2023-03-19T22:01:18.233Z,10.50
2023-03-19T22:04:57.481Z,10.50
2023-03-19T22:07:55.398Z,10.50
2023-03-19T22:10:37.339Z,10.40
2023-03-19T22:13:28.173Z,10.40
2023-03-19T22:16:13.075Z,10.50
2023-03-19T22:19:09.408Z,10.40
2023-03-19T22:21:50.767Z,10.40
2023-03-19T22:24:37.291Z,10.40
2023-03-19T22:27:24.070Z,10.30
2023-03-19T22:29:54.194Z,10.30
2023-03-19T22:32:23.456Z,10.30
2023-03-19T22:34:53.446Z,10.30
2023-03-19T22:37:28.017Z,10.20
2023-03-19T22:39:59.850Z,10.20
2023-03-19T22:42:29.585Z,10.20
2023-03-19T22:44:59.401Z,10.20
2023-03-19T22:47:29.066Z,10.20
2023-03-19T22:49:59.081Z,10.10
2023-03-19T22:52:29.511Z,10.10
2023-03-19T22:55:02.700Z,10.00
2023-03-19T22:57:32.786Z,9.90
2023-03-19T23:00:02.870Z,9.90
2023-03-19T23:02:32.936Z,9.90
2023-03-19T23:05:04.315Z,9.90
2023-03-19T23:07:34.014Z,9.90
2023-03-19T23:10:17.175Z,9.90
2023-03-19T23:12:46.734Z,9.80
2023-03-19T23:15:16.405Z,9.80
2023-03-19T23:17:47.613Z,9.70
2023-03-19T23:20:18.633Z,9.70
2023-03-19T23:22:47.998Z,9.60
2023-03-19T23:25:19.712Z,9.50
2023-03-19T23:27:49.405Z,9.40
2023-03-19T23:30:23.792Z,9.40
2023-03-19T23:32:52.676Z,9.30
2023-03-19T23:35:23.371Z,9.30
2023-03-19T23:37:55.092Z,9.30
2023-03-19T23:40:28.659Z,9.30
2023-03-19T23:42:58.254Z,9.30
2023-03-19T23:45:34.427Z,9.30
2023-03-19T23:48:11.468Z,9.30
2023-03-19T23:50:40.478Z,9.30
2023-03-19T23:53:18.712Z,9.30
2023-03-19T23:55:52.294Z,9.30
2023-03-19T23:58:21.172Z,9.30
